createdAt,value
2018-08-17T00:00:07.687Z,21.70
2018-08-17T00:02:36.229Z,21.70
2018-08-17T00:05:04.598Z,21.70
2018-08-17T00:07:32.995Z,21.60
2018-08-17T00:10:01.490Z,21.60
2018-08-17T00:12:29.879Z,21.70
2018-08-17T00:14:58.364Z,21.70
2018-08-17T00:17:26.811Z,21.70
2018-08-17T00:19:55.346Z,21.70
2018-08-17T00:22:23.737Z,21.60
2018-08-17T00:24:52.278Z,21.60
2018-08-17T00:27:20.783Z,21.50
2018-08-17T00:29:49.451Z,21.60
2018-08-17T00:32:18.419Z,21.60
2018-08-17T00:34:46.822Z,21.60
2018-08-17T00:37:15.217Z,21.60
2018-08-17T00:39:43.613Z,21.50
2018-08-17T00:42:12.037Z,21.50
2018-08-17T00:44:40.451Z,21.50
2018-08-17T00:47:08.949Z,21.50
2018-08-17T00:49:37.325Z,21.50
2018-08-17T00:52:05.746Z,21.50
2018-08-17T00:54:34.174Z,21.50
2018-08-17T00:57:02.645Z,21.50
2018-08-17T00:59:31.205Z,21.30
2018-08-17T01:01:59.599Z,21.40
2018-08-17T01:04:27.958Z,21.30
2018-08-17T01:06:56.280Z,21.30
2018-08-17T01:09:24.704Z,21.30
2018-08-17T01:11:53.335Z,21.30
2018-08-17T01:14:21.811Z,21.20
2018-08-17T01:16:50.315Z,21.30
2018-08-17T01:19:18.702Z,21.20
2018-08-17T01:21:47.075Z,21.20
2018-08-17T01:24:15.499Z,21.10
2018-08-17T01:26:43.940Z,21.20
2018-08-17T01:29:12.398Z,21.10
2018-08-17T01:31:40.830Z,21.10
2018-08-17T01:34:09.263Z,21.10
2018-08-17T01:36:37.602Z,21.10
2018-08-17T01:39:07.781Z,20.90
2018-08-17T01:41:36.312Z,20.90
2018-08-17T01:44:04.691Z,21.00
2018-08-17T01:46:33.131Z,21.00
2018-08-17T01:49:01.672Z,21.00
2018-08-17T01:51:30.055Z,21.00
2018-08-17T01:53:58.454Z,21.00
2018-08-17T01:56:26.894Z,21.00
2018-08-17T01:58:55.320Z,20.90
2018-08-17T02:01:23.747Z,20.90
2018-08-17T02:03:52.437Z,20.80
2018-08-17T02:06:20.962Z,20.70
2018-08-17T02:08:49.337Z,20.70
2018-08-17T02:11:17.819Z,20.60
2018-08-17T02:13:46.294Z,20.70
2018-08-17T02:16:14.645Z,20.80
2018-08-17T02:18:43.127Z,20.80
2018-08-17T02:21:11.516Z,20.80
2018-08-17T02:23:39.937Z,20.80
2018-08-17T02:26:08.394Z,20.80
2018-08-17T02:28:36.860Z,20.80
2018-08-17T02:31:05.207Z,20.80
2018-08-17T02:33:33.735Z,20.80
2018-08-17T02:36:02.169Z,20.70
2018-08-17T02:38:30.526Z,20.60
2018-08-17T02:40:58.957Z,20.70
2018-08-17T02:43:27.354Z,20.70
2018-08-17T02:45:55.792Z,20.60
2018-08-17T02:48:24.240Z,20.70
2018-08-17T02:50:52.970Z,20.60
2018-08-17T02:53:21.434Z,20.60
2018-08-17T02:55:49.882Z,20.40
2018-08-17T02:58:18.287Z,20.40
2018-08-17T03:00:46.834Z,20.50
2018-08-17T03:03:15.490Z,20.50
2018-08-17T03:05:43.975Z,20.40
2018-08-17T03:08:12.400Z,20.40
2018-08-17T03:10:40.798Z,20.40
2018-08-17T03:13:09.313Z,20.40
2018-08-17T03:15:37.898Z,20.40
2018-08-17T03:18:06.286Z,20.30
2018-08-17T03:20:34.646Z,20.10
2018-08-17T03:23:03.361Z,20.10
2018-08-17T03:25:31.831Z,20.10
2018-08-17T03:28:00.244Z,20.00
2018-08-17T03:30:28.786Z,20.00
2018-08-17T03:32:57.147Z,20.10
2018-08-17T03:35:25.608Z,20.00
2018-08-17T03:37:54.026Z,20.00
2018-08-17T03:40:22.436Z,20.10
2018-08-17T03:42:51.013Z,20.10
2018-08-17T03:45:19.406Z,20.10
2018-08-17T03:47:47.845Z,20.10
2018-08-17T03:50:16.266Z,20.10
2018-08-17T03:52:44.663Z,20.10
2018-08-17T03:55:13.116Z,20.10
2018-08-17T03:57:41.486Z,20.10
2018-08-17T04:00:09.919Z,20.10
2018-08-17T04:02:38.253Z,19.90
2018-08-17T04:05:06.658Z,19.90
2018-08-17T04:07:35.071Z,20.00
2018-08-17T04:10:03.458Z,20.10
2018-08-17T04:12:32.060Z,20.10
2018-08-17T04:15:00.635Z,20.00
2018-08-17T04:17:29.069Z,20.10
2018-08-17T04:19:57.409Z,20.10
2018-08-17T04:22:25.776Z,20.20
2018-08-17T04:24:54.279Z,20.20
2018-08-17T04:27:22.839Z,20.10
2018-08-17T04:29:51.178Z,20.20
2018-08-17T04:32:19.700Z,20.20
2018-08-17T04:34:48.084Z,20.30
2018-08-17T04:37:16.551Z,20.30
2018-08-17T04:39:45.148Z,20.50
2018-08-17T04:42:13.546Z,20.50
2018-08-17T04:44:41.919Z,20.60
2018-08-17T04:47:10.312Z,20.80
2018-08-17T04:49:38.666Z,20.80
2018-08-17T04:52:07.122Z,20.90
2018-08-17T04:54:35.473Z,20.90
2018-08-17T04:57:03.854Z,20.90
2018-08-17T04:59:32.520Z,21.10
2018-08-17T05:02:00.952Z,21.20
2018-08-17T05:04:29.330Z,21.20
2018-08-17T05:06:57.728Z,21.20
2018-08-17T05:09:26.096Z,21.30
2018-08-17T05:11:54.546Z,21.40
2018-08-17T05:14:22.957Z,21.40
2018-08-17T05:16:51.607Z,21.40
2018-08-17T05:19:20.551Z,21.50
2018-08-17T05:21:48.935Z,21.70
2018-08-17T05:24:17.615Z,21.80
2018-08-17T05:26:45.990Z,21.90
2018-08-17T05:29:14.423Z,22.00
2018-08-17T05:31:42.883Z,22.10
2018-08-17T05:34:11.508Z,22.10
2018-08-17T05:36:40.114Z,22.10
2018-08-17T05:39:09.247Z,22.30
2018-08-17T05:41:37.800Z,22.50
2018-08-17T05:44:06.222Z,22.50
2018-08-17T05:46:34.582Z,22.70
2018-08-17T05:49:02.967Z,22.80
2018-08-17T05:51:31.370Z,22.90
2018-08-17T05:53:59.774Z,23.00
2018-08-17T05:56:28.334Z,22.90
2018-08-17T05:58:56.784Z,23.00
2018-08-17T06:01:25.353Z,23.10
2018-08-17T06:03:53.852Z,23.20
2018-08-17T06:06:22.343Z,23.40
2018-08-17T06:08:50.726Z,23.40
2018-08-17T06:11:20.124Z,23.50
2018-08-17T06:13:48.469Z,23.60
2018-08-17T06:16:16.865Z,23.70
2018-08-17T06:18:45.433Z,23.80
2018-08-17T06:21:13.936Z,23.90
2018-08-17T06:23:42.426Z,23.90
2018-08-17T06:26:10.884Z,24.00
2018-08-17T06:28:39.364Z,24.10
2018-08-17T06:31:07.836Z,24.10
2018-08-17T06:33:36.425Z,24.20
2018-08-17T06:36:04.943Z,24.30
2018-08-17T06:38:33.332Z,24.40
2018-08-17T06:41:01.765Z,24.60
2018-08-17T06:43:30.352Z,24.60
2018-08-17T06:45:58.783Z,24.70
2018-08-17T06:48:27.138Z,24.70
2018-08-17T06:50:55.604Z,24.80
2018-08-17T06:53:23.957Z,24.90
2018-08-17T06:55:52.336Z,25.00
2018-08-17T06:58:20.934Z,25.10
2018-08-17T07:00:49.366Z,25.20
2018-08-17T07:03:17.873Z,25.30
2018-08-17T07:05:46.271Z,25.20
2018-08-17T07:08:14.628Z,25.20
2018-08-17T07:10:43.046Z,25.30
2018-08-17T07:13:11.618Z,25.30
2018-08-17T07:15:40.211Z,25.30
2018-08-17T07:18:09.055Z,25.40
2018-08-17T07:20:37.406Z,25.20
2018-08-17T07:23:06.051Z,25.30
2018-08-17T07:25:34.555Z,25.40
2018-08-17T07:28:03.018Z,25.50
2018-08-17T07:30:31.505Z,25.60
2018-08-17T07:32:59.887Z,25.60
2018-08-17T07:35:28.467Z,25.70
2018-08-17T07:37:56.859Z,25.80
2018-08-17T07:40:25.335Z,25.70
2018-08-17T07:42:53.689Z,25.60
2018-08-17T07:45:22.055Z,25.70
2018-08-17T07:47:50.529Z,25.80
2018-08-17T07:50:20.505Z,25.70
2018-08-17T07:52:48.860Z,25.80
2018-08-17T07:55:17.237Z,25.80
2018-08-17T07:57:45.649Z,26.00
2018-08-17T08:00:14.423Z,26.20
2018-08-17T08:02:42.782Z,26.30
2018-08-17T08:05:12.090Z,26.20
2018-08-17T08:07:40.594Z,26.30
2018-08-17T08:10:09.894Z,26.30
2018-08-17T08:12:38.459Z,26.30
2018-08-17T08:15:07.329Z,26.40
2018-08-17T08:17:36.097Z,26.30
2018-08-17T08:20:15.888Z,26.30
2018-08-17T08:22:44.339Z,26.40
2018-08-17T08:25:12.847Z,26.50
2018-08-17T08:27:41.374Z,26.50
2018-08-17T08:30:09.906Z,26.50
2018-08-17T08:32:38.426Z,26.60
2018-08-17T08:35:07.577Z,26.50
2018-08-17T08:37:35.967Z,26.60
2018-08-17T08:40:04.790Z,26.70
2018-08-17T08:42:33.282Z,26.70
2018-08-17T08:45:01.753Z,26.80
2018-08-17T08:47:30.141Z,26.80
2018-08-17T08:49:58.687Z,26.80
2018-08-17T08:52:27.296Z,26.80
2018-08-17T08:54:55.677Z,26.70
2018-08-17T08:57:24.157Z,26.70
2018-08-17T08:59:52.592Z,26.80
2018-08-17T09:02:21.176Z,26.80
2018-08-17T09:04:49.547Z,26.80
2018-08-17T09:07:17.991Z,27.00
2018-08-17T09:09:46.371Z,27.10
2018-08-17T09:12:14.822Z,27.20
2018-08-17T09:14:43.275Z,27.30
2018-08-17T09:17:11.776Z,27.30
2018-08-17T09:19:40.167Z,27.40
2018-08-17T09:22:08.638Z,27.40
2018-08-17T09:24:37.225Z,27.50
2018-08-17T09:27:06.012Z,27.50
2018-08-17T09:29:34.450Z,27.50
2018-08-17T09:32:03.105Z,27.40
2018-08-17T09:34:31.555Z,27.50
2018-08-17T09:37:00.144Z,27.30
2018-08-17T09:39:28.621Z,27.30
2018-08-17T09:41:57.560Z,27.20
2018-08-17T09:44:26.172Z,27.10
2018-08-17T09:46:54.607Z,27.30
2018-08-17T09:49:23.092Z,27.50
2018-08-17T09:51:51.653Z,27.90
2018-08-17T09:54:20.042Z,28.10
2018-08-17T09:56:48.513Z,28.10
2018-08-17T09:59:16.927Z,27.90
2018-08-17T10:01:51.004Z,27.90
2018-08-17T10:04:24.781Z,28.20
2018-08-17T10:06:58.559Z,28.20
2018-08-17T10:09:32.343Z,28.30
2018-08-17T10:12:01.350Z,28.50
2018-08-17T10:14:29.894Z,28.30
2018-08-17T10:16:58.382Z,28.10
2018-08-17T10:19:27.698Z,28.00
2018-08-17T10:21:56.590Z,28.10
2018-08-17T10:24:25.181Z,28.10
2018-08-17T10:26:54.606Z,28.10
2018-08-17T10:29:23.458Z,28.20
2018-08-17T10:31:52.453Z,28.30
2018-08-17T10:34:21.339Z,28.30
2018-08-17T10:36:49.820Z,28.40
2018-08-17T10:39:18.397Z,28.20
2018-08-17T10:41:46.827Z,28.30
2018-08-17T10:44:15.293Z,28.20
2018-08-17T10:46:43.754Z,28.10
2018-08-17T10:49:12.250Z,28.40
2018-08-17T10:51:40.669Z,28.60
2018-08-17T10:54:09.069Z,28.80
2018-08-17T10:56:37.589Z,28.60
2018-08-17T10:59:06.012Z,28.40
2018-08-17T11:01:34.433Z,28.40
2018-08-17T11:04:02.878Z,28.50
2018-08-17T11:06:31.337Z,28.60
2018-08-17T11:08:59.725Z,28.70
2018-08-17T11:11:28.284Z,28.60
2018-08-17T11:13:56.830Z,28.60
2018-08-17T11:16:25.370Z,29.00
2018-08-17T11:18:53.791Z,29.10
2018-08-17T11:21:22.198Z,29.00
2018-08-17T11:23:51.200Z,29.10
2018-08-17T11:26:19.629Z,29.20
2018-08-17T11:28:48.011Z,29.00
2018-08-17T11:31:16.419Z,29.00
2018-08-17T11:33:44.778Z,29.00
2018-08-17T11:36:13.271Z,29.10
2018-08-17T11:38:41.695Z,29.10
2018-08-17T11:41:10.977Z,28.90
2018-08-17T11:43:39.389Z,29.10
2018-08-17T11:46:08.735Z,29.00
2018-08-17T11:48:38.242Z,29.00
2018-08-17T11:51:06.673Z,28.90
2018-08-17T11:53:35.174Z,29.00
2018-08-17T11:56:03.567Z,29.30
2018-08-17T11:58:32.091Z,29.20
2018-08-17T12:01:00.449Z,29.10
2018-08-17T12:03:29.795Z,29.30
2018-08-17T12:05:58.171Z,29.50
2018-08-17T12:08:26.598Z,29.50
2018-08-17T12:11:03.386Z,29.40
2018-08-17T12:13:32.069Z,29.70
2018-08-17T12:16:00.577Z,29.70
2018-08-17T12:18:28.979Z,29.70
2018-08-17T12:20:57.390Z,29.70
2018-08-17T12:23:25.924Z,30.00
2018-08-17T12:25:55.723Z,29.80
2018-08-17T12:28:24.945Z,30.10
2018-08-17T12:30:53.326Z,29.60
2018-08-17T12:33:21.868Z,29.40
2018-08-17T12:35:50.481Z,29.60
2018-08-17T12:38:19.194Z,29.70
2018-08-17T12:40:48.976Z,29.50
2018-08-17T12:43:19.710Z,29.40
2018-08-17T12:45:48.198Z,29.30
2018-08-17T12:48:17.138Z,29.50
2018-08-17T12:50:46.151Z,29.60
2018-08-17T12:53:14.654Z,29.70
2018-08-17T12:55:43.467Z,30.20
2018-08-17T12:58:12.511Z,30.30
2018-08-17T13:00:40.889Z,30.30
2018-08-17T13:03:09.408Z,30.20
2018-08-17T13:05:37.977Z,30.10
2018-08-17T13:08:07.134Z,30.10
2018-08-17T13:10:35.646Z,30.20
2018-08-17T13:13:06.005Z,30.20
2018-08-17T13:15:34.936Z,30.30
2018-08-17T13:18:09.904Z,30.00
2018-08-17T13:20:38.445Z,29.80
2018-08-17T13:23:06.972Z,29.80
2018-08-17T13:25:35.358Z,29.70
2018-08-17T13:28:04.272Z,29.60
2018-08-17T13:30:32.698Z,29.60
2018-08-17T13:33:01.136Z,29.60
2018-08-17T13:35:29.578Z,29.60
2018-08-17T13:37:57.964Z,29.70
2018-08-17T13:40:26.373Z,30.00
2018-08-17T13:42:54.771Z,30.20
2018-08-17T13:45:23.304Z,30.20
2018-08-17T13:47:51.816Z,30.00
2018-08-17T13:50:20.346Z,30.10
2018-08-17T13:52:48.714Z,30.10
2018-08-17T13:55:17.201Z,30.20
2018-08-17T13:57:45.501Z,30.40
2018-08-17T14:00:13.934Z,30.60
2018-08-17T14:02:42.499Z,30.80
2018-08-17T14:05:11.797Z,30.90
2018-08-17T14:07:40.200Z,31.00
2018-08-17T14:10:10.059Z,30.80
2018-08-17T14:12:40.114Z,30.60
2018-08-17T14:15:09.813Z,30.90
2018-08-17T14:17:38.624Z,30.90
2018-08-17T14:20:09.849Z,30.90
2018-08-17T14:22:38.294Z,30.70
2018-08-17T14:25:09.560Z,30.70
2018-08-17T14:27:38.018Z,30.50
2018-08-17T14:30:10.452Z,30.50
2018-08-17T14:32:39.094Z,30.50
2018-08-17T14:35:07.589Z,30.40
2018-08-17T14:37:36.106Z,30.50
2018-08-17T14:40:04.868Z,30.40
2018-08-17T14:42:33.323Z,30.50
2018-08-17T14:45:01.810Z,30.10
2018-08-17T14:47:30.214Z,30.00
2018-08-17T14:49:58.771Z,30.40
2018-08-17T14:52:27.236Z,30.40
2018-08-17T14:54:55.657Z,30.30
2018-08-17T14:57:24.069Z,30.30
2018-08-17T14:59:53.773Z,30.60
2018-08-17T15:02:22.514Z,30.50
2018-08-17T15:04:51.084Z,30.50
2018-08-17T15:07:20.034Z,30.60
2018-08-17T15:09:48.780Z,30.40
2018-08-17T15:12:17.463Z,30.30
2018-08-17T15:14:45.851Z,30.50
2018-08-17T15:17:14.282Z,30.40
2018-08-17T15:19:42.908Z,30.20
2018-08-17T15:22:11.390Z,30.30
2018-08-17T15:24:39.973Z,30.40
2018-08-17T15:27:08.318Z,30.40
2018-08-17T15:29:36.722Z,30.30
2018-08-17T15:32:05.244Z,30.40
2018-08-17T15:34:33.594Z,30.10
2018-08-17T15:37:02.260Z,30.20
2018-08-17T15:39:30.690Z,30.30
2018-08-17T15:41:59.113Z,30.50
2018-08-17T15:44:27.671Z,30.60
2018-08-17T15:46:58.049Z,30.50
2018-08-17T15:49:31.918Z,30.50
2018-08-17T15:52:03.530Z,30.50
2018-08-17T15:54:32.775Z,30.50
2018-08-17T15:57:01.543Z,30.40
2018-08-17T15:59:30.288Z,30.40
2018-08-17T16:01:58.872Z,30.30
2018-08-17T16:04:27.305Z,30.20
2018-08-17T16:06:55.750Z,30.00
2018-08-17T16:09:24.243Z,30.00
2018-08-17T16:11:52.655Z,30.10
2018-08-17T16:14:21.121Z,30.30
2018-08-17T16:16:49.511Z,30.20
2018-08-17T16:19:17.873Z,30.30
2018-08-17T16:21:46.282Z,30.20
2018-08-17T16:24:19.786Z,30.30
2018-08-17T16:26:49.259Z,30.40
2018-08-17T16:29:18.633Z,30.30
2018-08-17T16:31:47.046Z,30.20
2018-08-17T16:34:15.443Z,30.10
2018-08-17T16:36:43.917Z,30.10
2018-08-17T16:39:14.718Z,30.00
2018-08-17T16:41:43.245Z,30.20
2018-08-17T16:44:12.141Z,30.10
2018-08-17T16:46:41.710Z,30.10
2018-08-17T16:49:10.198Z,30.10
2018-08-17T16:51:39.118Z,30.00
2018-08-17T16:54:10.136Z,29.90
2018-08-17T16:56:39.525Z,29.80
2018-08-17T16:59:10.059Z,29.80
2018-08-17T17:01:38.611Z,29.90
2018-08-17T17:04:07.194Z,30.00
2018-08-17T17:06:35.820Z,29.90
2018-08-17T17:09:08.019Z,29.90
2018-08-17T17:11:41.074Z,29.80
2018-08-17T17:14:10.552Z,29.90
2018-08-17T17:16:43.218Z,29.80
2018-08-17T17:19:15.015Z,29.80
2018-08-17T17:21:45.050Z,29.80
2018-08-17T17:24:25.139Z,29.70
2018-08-17T17:26:53.844Z,29.60
2018-08-17T17:29:23.286Z,29.50
2018-08-17T17:31:51.931Z,29.60
2018-08-17T17:34:20.483Z,29.50
2018-08-17T17:36:50.565Z,29.50
2018-08-17T17:39:19.748Z,29.40
2018-08-17T17:41:48.253Z,29.40
2018-08-17T17:44:16.667Z,29.30
2018-08-17T17:46:46.713Z,29.20
2018-08-17T17:49:16.983Z,29.30
2018-08-17T17:51:45.367Z,29.10
2018-08-17T17:54:24.696Z,29.10
2018-08-17T17:57:10.031Z,29.00
2018-08-17T17:59:44.719Z,28.90
2018-08-17T18:02:13.924Z,29.10
2018-08-17T18:04:43.132Z,29.00
2018-08-17T18:07:11.511Z,29.00
2018-08-17T18:09:40.220Z,28.90
2018-08-17T18:12:09.511Z,28.90
2018-08-17T18:14:38.104Z,29.00
2018-08-17T18:17:06.497Z,28.90
2018-08-17T18:19:34.894Z,28.90
2018-08-17T18:22:03.576Z,28.90
2018-08-17T18:24:32.097Z,28.80
2018-08-17T18:27:00.717Z,28.80
2018-08-17T18:29:29.115Z,28.70
2018-08-17T18:31:57.531Z,28.60
2018-08-17T18:34:26.060Z,28.60
2018-08-17T18:36:54.505Z,28.60
2018-08-17T18:39:25.523Z,28.50
2018-08-17T18:41:54.034Z,28.50
2018-08-17T18:44:22.465Z,28.40
2018-08-17T18:46:50.921Z,28.40
2018-08-17T18:49:19.334Z,28.40
2018-08-17T18:51:47.955Z,28.30
2018-08-17T18:54:16.410Z,28.20
2018-08-17T18:56:45.079Z,28.20
2018-08-17T18:59:13.677Z,28.10
2018-08-17T19:01:42.135Z,28.10
2018-08-17T19:04:10.563Z,28.10
2018-08-17T19:06:38.999Z,28.00
2018-08-17T19:09:08.520Z,27.90
2018-08-17T19:11:37.096Z,27.80
2018-08-17T19:14:05.520Z,27.80
2018-08-17T19:16:33.954Z,27.80
2018-08-17T19:19:02.448Z,27.80
2018-08-17T19:21:30.918Z,27.80
2018-08-17T19:23:59.481Z,27.80
2018-08-17T19:26:27.894Z,27.80
2018-08-17T19:28:56.280Z,27.70
2018-08-17T19:31:24.771Z,27.60
2018-08-17T19:33:53.306Z,27.60
2018-08-17T19:36:21.742Z,27.60
2018-08-17T19:38:50.292Z,27.50
2018-08-17T19:41:18.924Z,27.50
2018-08-17T19:43:47.436Z,27.40
2018-08-17T19:46:16.120Z,27.40
2018-08-17T19:48:44.759Z,27.40
2018-08-17T19:51:17.190Z,27.30
2018-08-17T19:53:45.982Z,27.20
2018-08-17T19:56:15.148Z,27.20
2018-08-17T19:58:43.878Z,27.10
2018-08-17T20:01:12.270Z,27.10
2018-08-17T20:03:40.817Z,27.00
2018-08-17T20:06:09.401Z,27.00
2018-08-17T20:08:37.886Z,26.90
2018-08-17T20:11:06.293Z,26.90
2018-08-17T20:13:34.780Z,26.90
2018-08-17T20:16:08.775Z,26.80
2018-08-17T20:18:37.190Z,26.80
2018-08-17T20:21:05.926Z,26.70
2018-08-17T20:23:34.426Z,26.70
2018-08-17T20:26:03.019Z,26.70
2018-08-17T20:28:31.361Z,26.70
2018-08-17T20:30:59.721Z,26.70
2018-08-17T20:33:28.158Z,26.70
2018-08-17T20:35:57.140Z,26.60
2018-08-17T20:38:25.542Z,26.60
2018-08-17T20:40:57.938Z,26.60
2018-08-17T20:43:26.770Z,26.60
2018-08-17T20:45:55.350Z,26.60
2018-08-17T20:48:23.858Z,26.60
2018-08-17T20:50:52.243Z,26.60
2018-08-17T20:53:21.002Z,26.60
2018-08-17T20:55:49.417Z,26.60
2018-08-17T20:58:17.987Z,26.50
2018-08-17T21:00:46.387Z,26.50
2018-08-17T21:03:15.560Z,26.50
2018-08-17T21:05:44.543Z,26.50
2018-08-17T21:08:13.529Z,26.50
2018-08-17T21:10:42.630Z,26.50
2018-08-17T21:13:11.725Z,26.50
2018-08-17T21:15:40.772Z,26.50
2018-08-17T21:18:09.623Z,26.60
2018-08-17T21:20:38.663Z,26.50
2018-08-17T21:23:07.492Z,26.60
2018-08-17T21:25:36.179Z,26.60
2018-08-17T21:28:04.869Z,26.50
2018-08-17T21:30:33.381Z,26.50
2018-08-17T21:33:02.038Z,26.50
2018-08-17T21:35:30.548Z,26.50
2018-08-17T21:37:59.204Z,26.40
2018-08-17T21:40:30.674Z,26.40
2018-08-17T21:43:01.589Z,26.30
2018-08-17T21:45:30.506Z,26.30
2018-08-17T21:47:59.177Z,26.30
2018-08-17T21:50:27.696Z,26.30
2018-08-17T21:52:56.440Z,26.20
2018-08-17T21:55:25.078Z,26.20
2018-08-17T21:57:53.559Z,26.10
2018-08-17T22:00:29.064Z,25.90
2018-08-17T22:02:57.690Z,25.90
2018-08-17T22:05:34.422Z,25.80
2018-08-17T22:08:03.124Z,25.30
2018-08-17T22:10:31.914Z,24.90
2018-08-17T22:13:00.497Z,24.70
2018-08-17T22:15:30.412Z,24.50
2018-08-17T22:17:59.182Z,24.50
2018-08-17T22:20:27.872Z,24.50
2018-08-17T22:22:56.570Z,24.00
2018-08-17T22:25:25.052Z,24.00
2018-08-17T22:27:53.636Z,23.90
2018-08-17T22:30:24.760Z,23.80
2018-08-17T22:32:53.396Z,23.70
2018-08-17T22:35:22.050Z,23.70
2018-08-17T22:37:50.615Z,23.50
2018-08-17T22:40:19.047Z,23.40
2018-08-17T22:42:48.086Z,23.30
2018-08-17T22:45:17.731Z,23.20
2018-08-17T22:47:46.204Z,23.10
2018-08-17T22:50:14.874Z,22.70
2018-08-17T22:52:43.550Z,22.50
2018-08-17T22:55:12.004Z,22.10
2018-08-17T22:57:40.443Z,21.90
2018-08-17T23:00:16.614Z,21.50
2018-08-17T23:02:45.865Z,21.40
2018-08-17T23:05:16.804Z,21.10
2018-08-17T23:07:45.331Z,21.00
2018-08-17T23:10:15.851Z,20.90
2018-08-17T23:12:45.369Z,20.80
2018-08-17T23:15:14.067Z,21.10
2018-08-17T23:17:46.014Z,21.10
2018-08-17T23:20:15.099Z,21.10
2018-08-17T23:22:50.058Z,21.30
2018-08-17T23:25:18.761Z,21.40
2018-08-17T23:27:48.026Z,21.60
2018-08-17T23:30:16.426Z,21.50
2018-08-17T23:32:45.470Z,21.70
2018-08-17T23:35:13.873Z,21.70
2018-08-17T23:37:42.299Z,21.40
2018-08-17T23:40:11.164Z,21.30
2018-08-17T23:42:39.651Z,21.30
2018-08-17T23:45:10.906Z,21.40
2018-08-17T23:47:39.783Z,21.40
2018-08-17T23:50:09.559Z,21.20
2018-08-17T23:52:38.010Z,21.00
2018-08-17T23:55:07.380Z,21.10
2018-08-17T23:57:36.132Z,21.00
